Terminal Aerodrome Forecast
Issued by NWS

Home | Current Version | Previous Version | Text Only | Print | Product List | Glossary On
Versions: 1 2 3 4 5 6 7 8 9 10 11 12 13 14
000
FTUS43 KEAX 190854 AAA
TAFMKC
TAF AMD
KMKC 190854Z 1909/2006 15007KT P6SM -TSRA SCT004 BKN050CB
     FM191100 15008KT P6SM BKN040
     FM191600 18012G22KT P6SM SCT200=

USA.gov is the U.S. government's official web portal to all federal, state and local government web resources and services.